createdAt,value
2018-01-15T00:00:44.947Z,98009.22
2018-01-15T00:01:49.673Z,98238.20
2018-01-15T00:02:54.370Z,97838.14
2018-01-15T00:03:59.041Z,97896.36
2018-01-15T00:05:04.317Z,98239.81
2018-01-15T00:06:09.065Z,98234.73
2018-01-15T00:07:13.812Z,98233.84
2018-01-15T00:08:18.611Z,97837.68
2018-01-15T00:09:23.457Z,98223.08
2018-01-15T00:10:28.573Z,98347.92
2018-01-15T00:11:33.398Z,97892.42
2018-01-15T00:12:38.047Z,98216.55
2018-01-15T00:13:42.804Z,98213.97
2018-01-15T00:14:47.567Z,98213.94
2018-01-15T00:15:52.317Z,98211.36
2018-01-15T00:16:57.466Z,98213.39
2018-01-15T00:18:02.153Z,98103.02
2018-01-15T00:19:06.952Z,98206.24
2018-01-15T00:20:11.745Z,97858.29
2018-01-15T00:21:16.325Z,98194.06
2018-01-15T00:22:20.989Z,98141.84
2018-01-15T00:23:26.195Z,98204.42
2018-01-15T00:24:30.948Z,97863.64
2018-01-15T00:25:35.651Z,98192.64
2018-01-15T00:26:40.382Z,98200.03
2018-01-15T00:27:45.119Z,98031.87
2018-01-15T00:28:49.820Z,98196.74
2018-01-15T00:29:54.903Z,98192.39
2018-01-15T00:30:59.627Z,98193.79
2018-01-15T00:32:04.372Z,98089.41
2018-01-15T00:33:09.054Z,98073.91
2018-01-15T00:34:13.810Z,98184.50
2018-01-15T00:35:18.465Z,98185.99
2018-01-15T00:36:23.546Z,97788.42
2018-01-15T00:37:28.234Z,98177.49
2018-01-15T00:38:32.979Z,98179.52
2018-01-15T00:39:37.597Z,98176.00
2018-01-15T00:40:42.391Z,98178.31
2018-01-15T00:41:47.133Z,98167.72
2018-01-15T00:42:52.379Z,98166.69
2018-01-15T00:43:57.138Z,98171.28
2018-01-15T00:45:01.883Z,98165.75
2018-01-15T00:46:06.579Z,98171.23
2018-01-15T00:47:11.249Z,98167.98
2018-01-15T00:48:15.918Z,98170.69
2018-01-15T00:49:21.150Z,97973.72
2018-01-15T00:50:25.742Z,98171.00
2018-01-15T00:51:30.526Z,98141.53
2018-01-15T00:52:35.240Z,98163.72
2018-01-15T00:53:39.971Z,98162.22
2018-01-15T00:54:44.714Z,98155.93
2018-01-15T00:55:49.733Z,98150.58
2018-01-15T00:56:54.479Z,98096.19
2018-01-15T00:57:59.184Z,98152.92
2018-01-15T00:59:03.927Z,98156.27
2018-01-15T01:00:08.663Z,97664.31
2018-01-15T01:01:13.441Z,98149.13
2018-01-15T01:02:18.656Z,98147.36
2018-01-15T01:03:23.470Z,98038.05
2018-01-15T01:04:28.243Z,98144.69
2018-01-15T01:05:32.959Z,98267.54
2018-01-15T01:06:37.661Z,98144.86
2018-01-15T01:07:42.287Z,98142.80
2018-01-15T01:08:47.406Z,98205.55
2018-01-15T01:09:52.178Z,98085.11
2018-01-15T01:10:56.927Z,98138.95
2018-01-15T01:12:01.649Z,98135.20
2018-01-15T01:13:06.364Z,98142.00
2018-01-15T01:14:11.121Z,98139.13
2018-01-15T01:15:16.271Z,98141.45
2018-01-15T01:16:21.156Z,97794.89
2018-01-15T01:17:25.867Z,98138.69
2018-01-15T01:18:30.667Z,98028.97
2018-01-15T01:19:35.387Z,98126.07
2018-01-15T01:20:40.208Z,98122.82
2018-01-15T01:21:45.391Z,98122.44
2018-01-15T01:22:50.193Z,98116.24
2018-01-15T01:23:55.236Z,98121.84
2018-01-15T01:24:59.950Z,98121.41
2018-01-15T01:26:04.651Z,98232.48
2018-01-15T01:27:09.343Z,98120.69
2018-01-15T01:28:13.960Z,98124.64
2018-01-15T01:29:18.540Z,98123.69
2018-01-15T01:30:23.165Z,98115.20
2018-01-15T01:31:27.635Z,97950.28
2018-01-15T01:32:32.130Z,98139.70
2018-01-15T01:33:39.002Z,98071.09
2018-01-15T01:34:43.715Z,98114.75
2018-01-15T01:35:48.385Z,98017.39
2018-01-15T01:36:52.968Z,98118.59
2018-01-15T01:37:57.681Z,98121.16
2018-01-15T01:39:02.370Z,98122.42
2018-01-15T01:40:07.373Z,98113.01
2018-01-15T01:41:12.108Z,98117.84
2018-01-15T01:42:16.888Z,98117.64
2018-01-15T01:43:21.621Z,98118.16
2018-01-15T01:44:26.348Z,98116.13
2018-01-15T01:45:31.000Z,98116.23
2018-01-15T01:46:35.898Z,97944.04
2018-01-15T01:47:40.454Z,98050.39
2018-01-15T01:48:45.151Z,97949.95
2018-01-15T01:49:49.671Z,97678.13
2018-01-15T01:50:54.301Z,98309.75
2018-01-15T01:51:59.090Z,98100.44
2018-01-15T01:53:04.200Z,97834.89
2018-01-15T01:54:09.137Z,97789.89
2018-01-15T01:55:13.839Z,97997.74
2018-01-15T01:56:18.576Z,98053.11
2018-01-15T01:57:23.291Z,98107.81
2018-01-15T01:58:28.012Z,98003.45
2018-01-15T01:59:33.118Z,97691.48
2018-01-15T02:00:37.780Z,98220.94
2018-01-15T02:01:42.461Z,98107.22
2018-01-15T02:02:47.389Z,98099.64
2018-01-15T02:03:52.101Z,98096.19
2018-01-15T02:04:56.872Z,98095.89
2018-01-15T02:06:02.039Z,98104.25
2018-01-15T02:07:06.784Z,97834.41
2018-01-15T02:08:11.485Z,97714.95
2018-01-15T02:09:16.189Z,97987.02
2018-01-15T02:10:20.861Z,98108.16
2018-01-15T02:11:25.570Z,98105.91
2018-01-15T02:12:30.665Z,98102.31
2018-01-15T02:13:35.410Z,98097.34
2018-01-15T02:14:40.186Z,98100.20
2018-01-15T02:15:45.049Z,98099.16
2018-01-15T02:16:49.762Z,98096.70
2018-01-15T02:17:54.460Z,98097.27
2018-01-15T02:18:59.776Z,98095.84
2018-01-15T02:20:04.487Z,98094.41
2018-01-15T02:21:09.211Z,98085.88
2018-01-15T02:22:13.918Z,98089.83
2018-01-15T02:23:18.725Z,98085.63
2018-01-15T02:24:23.425Z,97979.88
2018-01-15T02:25:28.585Z,98034.74
2018-01-15T02:26:33.469Z,98084.34
2018-01-15T02:27:38.219Z,98031.17
2018-01-15T02:28:42.935Z,98081.56
2018-01-15T02:29:47.624Z,97971.23
2018-01-15T02:30:52.557Z,98069.66
2018-01-15T02:31:57.721Z,98204.72
2018-01-15T02:33:02.557Z,98030.78
2018-01-15T02:34:07.151Z,98078.41
2018-01-15T02:35:11.738Z,97969.12
2018-01-15T02:36:16.499Z,98073.61
2018-01-15T02:37:21.267Z,98072.86
2018-01-15T02:38:26.442Z,97854.58
2018-01-15T02:39:31.230Z,98057.44
2018-01-15T02:40:35.994Z,98060.77
2018-01-15T02:41:40.698Z,98063.22
2018-01-15T02:42:45.413Z,98059.98
2018-01-15T02:43:50.102Z,98057.97
2018-01-15T02:44:55.340Z,98051.89
2018-01-15T02:46:00.068Z,98046.70
2018-01-15T02:47:04.809Z,97826.19
2018-01-15T02:48:09.672Z,98042.40
2018-01-15T02:49:14.422Z,97614.30
2018-01-15T02:50:19.286Z,98042.23
2018-01-15T02:51:24.490Z,98043.13
2018-01-15T02:52:29.238Z,98033.73
2018-01-15T02:53:34.023Z,98031.92
2018-01-15T02:54:38.781Z,97921.14
2018-01-15T02:55:43.491Z,97876.85
2018-01-15T02:56:48.182Z,97920.34
2018-01-15T02:57:53.262Z,97918.45
2018-01-15T02:58:58.023Z,98029.21
2018-01-15T03:00:02.738Z,98023.54
2018-01-15T03:01:07.451Z,97981.70
2018-01-15T03:02:12.251Z,98026.44
2018-01-15T03:03:16.963Z,98019.55
2018-01-15T03:04:22.162Z,98022.09
2018-01-15T03:05:26.934Z,98015.56
2018-01-15T03:06:31.652Z,98021.56
2018-01-15T03:07:36.408Z,98023.34
2018-01-15T03:08:41.158Z,98026.19
2018-01-15T03:09:45.882Z,98021.41
2018-01-15T03:10:51.069Z,98016.58
2018-01-15T03:11:55.807Z,98012.09
2018-01-15T03:13:00.514Z,98014.20
2018-01-15T03:14:05.218Z,98016.94
2018-01-15T03:15:09.974Z,98014.30
2018-01-15T03:16:14.710Z,98014.22
2018-01-15T03:17:20.136Z,97798.20
2018-01-15T03:18:24.949Z,98012.19
2018-01-15T03:19:29.772Z,98002.86
2018-01-15T03:20:34.551Z,98007.76
2018-01-15T03:21:39.255Z,98006.31
2018-01-15T03:22:43.856Z,98006.06
2018-01-15T03:23:48.851Z,98005.88
2018-01-15T03:24:53.414Z,97997.57
2018-01-15T03:25:58.122Z,97994.82
2018-01-15T03:27:02.834Z,97990.31
2018-01-15T03:28:07.560Z,97996.37
2018-01-15T03:29:12.302Z,97994.09
2018-01-15T03:30:17.523Z,97986.02
2018-01-15T03:31:22.320Z,97987.41
2018-01-15T03:32:27.011Z,97991.09
2018-01-15T03:33:31.678Z,97985.73
2018-01-15T03:34:36.369Z,97980.39
2018-01-15T03:35:41.027Z,97977.69
2018-01-15T03:36:46.236Z,97981.73
2018-01-15T03:37:51.041Z,97976.23
2018-01-15T03:38:55.701Z,97978.64
2018-01-15T03:40:00.436Z,97425.67
2018-01-15T03:41:05.066Z,97983.13
2018-01-15T03:42:09.761Z,98077.46
2018-01-15T03:43:14.843Z,97919.33
2018-01-15T03:44:19.459Z,97975.86
2018-01-15T03:45:24.163Z,97973.29
2018-01-15T03:46:28.667Z,97919.00
2018-01-15T03:47:33.145Z,97967.36
2018-01-15T03:48:37.714Z,97810.27
2018-01-15T03:49:42.736Z,97963.08
2018-01-15T03:50:47.409Z,97964.30
2018-01-15T03:51:52.102Z,97959.30
2018-01-15T03:52:56.733Z,98056.83
2018-01-15T03:54:01.386Z,97944.48
2018-01-15T03:55:06.006Z,97943.89
2018-01-15T03:56:11.077Z,97639.53
2018-01-15T03:57:15.729Z,97937.48
2018-01-15T03:58:20.490Z,97937.03
2018-01-15T03:59:25.173Z,97725.09
2018-01-15T04:00:29.844Z,97931.17
2018-01-15T04:01:34.485Z,97935.25
2018-01-15T04:02:39.158Z,97922.83
2018-01-15T04:03:43.789Z,97924.34
2018-01-15T04:04:48.507Z,97923.78
2018-01-15T04:05:53.186Z,97926.48
2018-01-15T04:06:57.899Z,97918.66
2018-01-15T04:08:02.674Z,97920.30
2018-01-15T04:09:07.458Z,97921.22
2018-01-15T04:10:12.499Z,97823.87
2018-01-15T04:11:17.271Z,97921.47
2018-01-15T04:12:22.114Z,97919.14
2018-01-15T04:13:27.247Z,97921.00
2018-01-15T04:14:31.971Z,97913.30
2018-01-15T04:15:36.536Z,97910.23
2018-01-15T04:16:41.463Z,97906.72
2018-01-15T04:17:46.025Z,97905.24
2018-01-15T04:18:50.763Z,97582.25
2018-01-15T04:19:55.935Z,97903.15
2018-01-15T04:21:00.581Z,97902.47
2018-01-15T04:22:05.257Z,97892.36
2018-01-15T04:23:09.971Z,97894.63
2018-01-15T04:24:14.703Z,97893.02
2018-01-15T04:25:19.405Z,97895.79
2018-01-15T04:26:24.613Z,97893.14
2018-01-15T04:27:29.355Z,97849.56
2018-01-15T04:28:34.157Z,97885.94
2018-01-15T04:29:38.988Z,97892.81
2018-01-15T04:30:43.730Z,97888.80
2018-01-15T04:31:48.482Z,97888.39
2018-01-15T04:32:53.557Z,97888.12
2018-01-15T04:33:58.337Z,97883.81
2018-01-15T04:35:03.111Z,97885.64
2018-01-15T04:36:08.048Z,97655.50
2018-01-15T04:37:12.872Z,97725.88
2018-01-15T04:38:17.648Z,97882.77
2018-01-15T04:39:22.819Z,97881.48
2018-01-15T04:40:27.624Z,97879.63
2018-01-15T04:41:32.383Z,97875.47
2018-01-15T04:42:37.165Z,97871.83
2018-01-15T04:43:41.910Z,97714.37
2018-01-15T04:44:46.609Z,97652.73
2018-01-15T04:45:51.812Z,97867.97
2018-01-15T04:46:56.587Z,97869.95
2018-01-15T04:48:01.312Z,97874.66
2018-01-15T04:49:06.041Z,97875.89
2018-01-15T04:50:10.797Z,97873.98
2018-01-15T04:51:15.500Z,97862.56
2018-01-15T04:52:20.956Z,97851.35
2018-01-15T04:53:26.445Z,97700.37
2018-01-15T04:54:31.088Z,97847.52
2018-01-15T04:55:35.723Z,97856.95
2018-01-15T04:56:40.375Z,97696.04
2018-01-15T04:57:45.012Z,97854.97
2018-01-15T04:58:50.365Z,97860.56
2018-01-15T04:59:55.129Z,97855.16
2018-01-15T05:00:59.918Z,97804.16
2018-01-15T05:02:04.634Z,97858.00
2018-01-15T05:03:09.355Z,97703.52
2018-01-15T05:04:14.107Z,97744.19
2018-01-15T05:05:19.330Z,97700.19
2018-01-15T05:06:24.052Z,97858.03
2018-01-15T05:07:28.830Z,97853.41
2018-01-15T05:08:33.581Z,97849.06
2018-01-15T05:09:38.329Z,97845.98
2018-01-15T05:10:43.103Z,97846.28
2018-01-15T05:11:48.427Z,97848.95
2018-01-15T05:12:53.145Z,97843.37
2018-01-15T05:13:57.885Z,97846.94
2018-01-15T05:15:02.635Z,97848.27
2018-01-15T05:16:07.453Z,97853.97
2018-01-15T05:17:12.161Z,97853.10
2018-01-15T05:18:17.230Z,97853.05
2018-01-15T05:19:21.876Z,97852.30
2018-01-15T05:20:26.610Z,97847.62
2018-01-15T05:21:31.274Z,97846.53
2018-01-15T05:22:35.914Z,97844.50
2018-01-15T05:23:40.700Z,97524.73
2018-01-15T05:24:45.713Z,97837.51
2018-01-15T05:25:50.454Z,97473.72
2018-01-15T05:26:55.097Z,97838.45
2018-01-15T05:27:59.723Z,97837.45
2018-01-15T05:29:04.315Z,97835.47
2018-01-15T05:30:08.856Z,97831.20
2018-01-15T05:31:13.950Z,97830.31
2018-01-15T05:32:18.600Z,97832.93
2018-01-15T05:33:23.197Z,97830.09
2018-01-15T05:34:27.916Z,97828.55
2018-01-15T05:35:33.096Z,97826.05
2018-01-15T05:36:37.974Z,97826.16
2018-01-15T05:37:43.082Z,98077.34
2018-01-15T05:38:47.743Z,97829.20
2018-01-15T05:39:52.434Z,97830.09
2018-01-15T05:40:57.080Z,97828.97
2018-01-15T05:42:01.758Z,97824.35
2018-01-15T05:43:06.438Z,97831.92
2018-01-15T05:44:11.613Z,97833.62
2018-01-15T05:45:16.308Z,97674.31
2018-01-15T05:46:21.060Z,97831.22
2018-01-15T05:47:25.821Z,97378.84
2018-01-15T05:48:31.525Z,97831.59
2018-01-15T05:49:36.307Z,97668.02
2018-01-15T05:50:41.322Z,97831.77
2018-01-15T05:51:46.046Z,97674.17
2018-01-15T05:52:50.815Z,97824.84
2018-01-15T05:53:55.579Z,97832.55
2018-01-15T05:55:00.364Z,97830.16
2018-01-15T05:56:05.135Z,97773.63
2018-01-15T05:57:10.305Z,97830.21
2018-01-15T05:58:15.015Z,97827.98
2018-01-15T05:59:19.737Z,97825.93
2018-01-15T06:00:24.424Z,97831.09
2018-01-15T06:01:29.108Z,97827.09
2018-01-15T06:02:33.711Z,97822.56
2018-01-15T06:03:38.954Z,97821.66
2018-01-15T06:04:43.614Z,97812.20
2018-01-15T06:05:48.405Z,97153.31
2018-01-15T06:06:53.095Z,97808.92
2018-01-15T06:07:57.774Z,97807.42
2018-01-15T06:09:02.437Z,97864.86
2018-01-15T06:10:07.401Z,97702.30
2018-01-15T06:11:12.280Z,97704.37
2018-01-15T06:12:17.056Z,97812.24
2018-01-15T06:13:21.777Z,97753.19
2018-01-15T06:14:26.556Z,97808.83
2018-01-15T06:15:31.371Z,97805.64
2018-01-15T06:16:36.868Z,97597.70
2018-01-15T06:17:41.679Z,97378.87
2018-01-15T06:18:46.497Z,97801.85
2018-01-15T06:19:51.283Z,97793.54
2018-01-15T06:20:56.075Z,97636.00
2018-01-15T06:22:00.853Z,97796.14
2018-01-15T06:23:06.256Z,97798.61
2018-01-15T06:24:11.025Z,97794.01
2018-01-15T06:25:15.810Z,97794.56
2018-01-15T06:26:20.591Z,97790.07
2018-01-15T06:27:25.430Z,97742.20
2018-01-15T06:28:30.221Z,97785.01
2018-01-15T06:29:38.757Z,97785.03
2018-01-15T06:30:43.519Z,97785.24
2018-01-15T06:31:48.315Z,97783.87
2018-01-15T06:32:53.125Z,97778.91
2018-01-15T06:33:57.864Z,97774.93
2018-01-15T06:35:02.569Z,97777.46
2018-01-15T06:36:07.243Z,97784.88
2018-01-15T06:37:11.965Z,97785.50
2018-01-15T06:38:16.685Z,97774.97
2018-01-15T06:39:21.394Z,97779.41
2018-01-15T06:40:26.145Z,97785.80
2018-01-15T06:41:31.274Z,97788.66
2018-01-15T06:42:35.967Z,97785.39
2018-01-15T06:43:40.679Z,97785.75
2018-01-15T06:44:45.454Z,97787.64
2018-01-15T06:45:50.263Z,97783.69
2018-01-15T06:46:55.039Z,97781.97
2018-01-15T06:48:00.306Z,97779.52
2018-01-15T06:49:05.326Z,97783.31
2018-01-15T06:50:10.134Z,97783.48
2018-01-15T06:51:14.997Z,97784.08
2018-01-15T06:52:19.745Z,97673.09
2018-01-15T06:53:24.520Z,97572.63
2018-01-15T06:54:29.464Z,97777.75
2018-01-15T06:55:34.089Z,97363.30
2018-01-15T06:56:38.784Z,97672.82
2018-01-15T06:57:43.475Z,97664.89
2018-01-15T06:58:48.157Z,97772.37
2018-01-15T06:59:52.820Z,97771.52
2018-01-15T07:00:57.846Z,97769.03
2018-01-15T07:02:02.603Z,97972.20
2018-01-15T07:03:07.314Z,97667.65
2018-01-15T07:04:12.067Z,97266.30
2018-01-15T07:05:16.811Z,97762.14
2018-01-15T07:06:21.610Z,97755.21
2018-01-15T07:07:26.872Z,97765.75
2018-01-15T07:08:31.673Z,97760.68
2018-01-15T07:09:36.461Z,97759.64
2018-01-15T07:10:41.308Z,97761.52
2018-01-15T07:11:46.075Z,97765.16
2018-01-15T07:12:51.000Z,97765.48
2018-01-15T07:13:56.119Z,97758.58
2018-01-15T07:15:01.073Z,97755.03
2018-01-15T07:16:05.703Z,97755.98
2018-01-15T07:17:10.324Z,97758.94
2018-01-15T07:18:15.692Z,97651.61
2018-01-15T07:19:20.414Z,97399.06
2018-01-15T07:20:25.495Z,97769.64
2018-01-15T07:21:30.906Z,97766.95
2018-01-15T07:22:35.634Z,97767.13
2018-01-15T07:23:40.253Z,97764.66
2018-01-15T07:24:44.900Z,97764.30
2018-01-15T07:25:49.656Z,97663.92
2018-01-15T07:26:54.857Z,97498.09
2018-01-15T07:27:59.666Z,97759.16
2018-01-15T07:29:04.531Z,97051.52
2018-01-15T07:30:09.464Z,97854.92
2018-01-15T07:31:14.314Z,97749.80
2018-01-15T07:32:19.110Z,97750.80
2018-01-15T07:33:24.265Z,97590.03
2018-01-15T07:34:29.373Z,97523.91
2018-01-15T07:35:34.192Z,97309.40
2018-01-15T07:36:38.930Z,97742.02
2018-01-15T07:37:43.947Z,97741.35
2018-01-15T07:38:48.649Z,97737.66
2018-01-15T07:39:53.746Z,97741.35
2018-01-15T07:40:58.465Z,97735.08
2018-01-15T07:42:03.410Z,97732.71
2018-01-15T07:43:08.136Z,97733.41
2018-01-15T07:44:12.765Z,97727.72
2018-01-15T07:45:17.536Z,97731.96
2018-01-15T07:46:22.661Z,98019.50
2018-01-15T07:47:27.381Z,97733.61
2018-01-15T07:48:32.094Z,97732.44
2018-01-15T07:49:36.762Z,97731.55
2018-01-15T07:50:41.546Z,97731.61
2018-01-15T07:51:46.217Z,97728.59
2018-01-15T07:52:51.318Z,97736.63
2018-01-15T07:53:55.990Z,97378.73
2018-01-15T07:55:00.673Z,97742.99
2018-01-15T07:56:05.348Z,97734.95
2018-01-15T07:57:09.980Z,97733.51
2018-01-15T07:58:14.705Z,97376.63
2018-01-15T07:59:19.756Z,97617.03
2018-01-15T08:00:24.605Z,97719.14
2018-01-15T08:01:29.322Z,97720.17
2018-01-15T08:02:33.988Z,97715.03
2018-01-15T08:03:38.661Z,97518.56
2018-01-15T08:04:43.568Z,97720.11
2018-01-15T08:05:48.705Z,97716.28
2018-01-15T08:06:53.383Z,97716.47
2018-01-15T08:07:58.121Z,97714.80
2018-01-15T08:09:03.433Z,97711.06
2018-01-15T08:10:08.214Z,97713.56
2018-01-15T08:11:12.882Z,97458.70
2018-01-15T08:12:18.258Z,97705.64
2018-01-15T08:13:23.078Z,97643.84
2018-01-15T08:14:27.990Z,97698.00
2018-01-15T08:15:32.766Z,97696.20
2018-01-15T08:16:37.545Z,97689.93
2018-01-15T08:17:41.685Z,97490.11
2018-01-15T08:18:47.306Z,97798.09
2018-01-15T08:19:51.918Z,97688.23
2018-01-15T08:20:57.863Z,97120.41
2018-01-15T08:22:02.758Z,97683.95
2018-01-15T08:23:07.517Z,97685.23
2018-01-15T08:24:12.407Z,97686.59
2018-01-15T08:25:17.598Z,97684.47
2018-01-15T08:26:22.342Z,97683.92
2018-01-15T08:27:27.083Z,97680.22
2018-01-15T08:28:31.675Z,97679.36
2018-01-15T08:29:36.241Z,97928.58
2018-01-15T08:30:40.820Z,97674.45
2018-01-15T08:31:45.931Z,97667.69
2018-01-15T08:32:50.885Z,97669.23
2018-01-15T08:33:55.660Z,97675.22
2018-01-15T08:35:00.388Z,97667.71
2018-01-15T08:36:05.227Z,97667.38
2018-01-15T08:37:09.860Z,97660.17
2018-01-15T08:38:14.915Z,97660.53
2018-01-15T08:39:19.598Z,97341.98
2018-01-15T08:40:24.220Z,97652.22
2018-01-15T08:41:28.920Z,97659.31
2018-01-15T08:42:33.814Z,97490.90
2018-01-15T08:43:38.463Z,97449.89
2018-01-15T08:44:43.574Z,97664.00
2018-01-15T08:45:48.247Z,97660.14
2018-01-15T08:46:52.927Z,97661.53
2018-01-15T08:47:57.633Z,96746.09
2018-01-15T08:49:02.309Z,97426.07
2018-01-15T08:50:07.066Z,97285.88
2018-01-15T08:51:12.097Z,97318.13
2018-01-15T08:52:16.738Z,97665.09
2018-01-15T08:53:21.368Z,97654.94
2018-01-15T08:54:26.108Z,97379.76
2018-01-15T08:55:30.763Z,97652.64
2018-01-15T08:56:35.493Z,97649.62
2018-01-15T08:57:40.606Z,97394.84
2018-01-15T08:58:45.317Z,97861.02
2018-01-15T08:59:50.251Z,97648.80
2018-01-15T09:00:55.072Z,97647.72
2018-01-15T09:01:59.888Z,97638.90
2018-01-15T09:03:04.654Z,97636.64
2018-01-15T09:04:10.020Z,97632.12
2018-01-15T09:05:14.878Z,97630.61
2018-01-15T09:06:19.715Z,97631.14
2018-01-15T09:07:24.470Z,97409.70
2018-01-15T09:08:29.229Z,97528.97
2018-01-15T09:09:33.915Z,97630.34
2018-01-15T09:10:38.939Z,97631.27
2018-01-15T09:11:43.608Z,97649.45
2018-01-15T09:12:48.396Z,97571.91
2018-01-15T09:13:53.035Z,97622.77
2018-01-15T09:14:57.697Z,97615.36
2018-01-15T09:16:02.473Z,97616.24
2018-01-15T09:17:08.230Z,97635.05
2018-01-15T09:18:12.902Z,97611.70
2018-01-15T09:19:17.467Z,97605.49
2018-01-15T09:20:22.143Z,97378.55
2018-01-15T09:21:26.655Z,96980.22
2018-01-15T09:22:31.748Z,97181.73
2018-01-15T09:23:36.593Z,97598.98
2018-01-15T09:24:41.273Z,97598.83
2018-01-15T09:25:46.440Z,97597.17
2018-01-15T09:26:51.072Z,97346.90
2018-01-15T09:27:55.769Z,97600.64
2018-01-15T09:29:00.785Z,97598.48
2018-01-15T09:30:05.694Z,97602.72
2018-01-15T09:31:10.953Z,97594.47
2018-01-15T09:32:15.645Z,97495.02
2018-01-15T09:33:20.417Z,97594.39
2018-01-15T09:34:25.084Z,97598.83
2018-01-15T09:35:30.179Z,97591.46
2018-01-15T09:36:34.931Z,97590.20
2018-01-15T09:37:39.614Z,97644.41
2018-01-15T09:38:44.372Z,97277.63
2018-01-15T09:39:49.148Z,97587.35
2018-01-15T09:40:54.009Z,97587.67
2018-01-15T09:42:00.196Z,97579.03
2018-01-15T09:43:04.961Z,97582.73
2018-01-15T09:44:09.717Z,97578.95
2018-01-15T09:45:14.549Z,97579.39
2018-01-15T09:46:19.368Z,97278.09
2018-01-15T09:47:24.204Z,97577.87
2018-01-15T09:48:29.330Z,97580.16
2018-01-15T09:49:34.090Z,97575.10
2018-01-15T09:50:38.963Z,97574.80
2018-01-15T09:51:43.782Z,97575.22
2018-01-15T09:52:48.645Z,97573.38
2018-01-15T09:53:53.491Z,97564.41
2018-01-15T09:54:58.736Z,97563.59
2018-01-15T09:56:03.590Z,97565.47
2018-01-15T09:57:08.334Z,97562.33
2018-01-15T09:58:13.090Z,97553.55
2018-01-15T09:59:17.839Z,97560.22
2018-01-15T10:00:22.550Z,97088.30
2018-01-15T10:01:27.744Z,97565.86
2018-01-15T10:02:32.455Z,97358.33
2018-01-15T10:03:37.162Z,97558.92
2018-01-15T10:04:41.918Z,97450.02
2018-01-15T10:05:46.577Z,97557.72
2018-01-15T10:06:51.350Z,97562.84
2018-01-15T10:07:56.380Z,97565.30
2018-01-15T10:09:01.084Z,97636.19
2018-01-15T10:10:05.819Z,97534.84
2018-01-15T10:11:10.488Z,97542.77
2018-01-15T10:12:15.214Z,97542.50
2018-01-15T10:13:19.966Z,97532.56
2018-01-15T10:14:25.149Z,97540.59
2018-01-15T10:15:29.902Z,97536.16
2018-01-15T10:16:34.738Z,97531.08
2018-01-15T10:17:39.418Z,97526.75
2018-01-15T10:18:44.120Z,97520.28
2018-01-15T10:19:48.860Z,97517.05
2018-01-15T10:20:54.073Z,97320.13
2018-01-15T10:21:58.984Z,97521.64
2018-01-15T10:23:03.807Z,97511.16
2018-01-15T10:24:08.638Z,97514.04
2018-01-15T10:25:13.399Z,97491.50
2018-01-15T10:26:18.650Z,97456.22
2018-01-15T10:27:23.338Z,97350.16
2018-01-15T10:28:27.931Z,97506.30
2018-01-15T10:29:33.762Z,97491.11
2018-01-15T10:30:38.675Z,97478.80
2018-01-15T10:31:43.399Z,97480.33
2018-01-15T10:32:48.896Z,97470.66
2018-01-15T10:33:53.603Z,97523.44
2018-01-15T10:34:58.391Z,97357.98
2018-01-15T10:36:03.108Z,97460.36
2018-01-15T10:37:07.916Z,97453.41
2018-01-15T10:38:12.655Z,97450.56
2018-01-15T10:39:17.933Z,97451.19
2018-01-15T10:40:22.644Z,97449.09
2018-01-15T10:41:27.563Z,97444.02
2018-01-15T10:42:32.396Z,97439.53
2018-01-15T10:43:37.303Z,97436.72
2018-01-15T10:44:42.224Z,97432.84
2018-01-15T10:45:47.462Z,97209.90
2018-01-15T10:46:52.247Z,97434.84
2018-01-15T10:47:57.119Z,97427.34
2018-01-15T10:49:02.190Z,97459.70
2018-01-15T10:50:07.328Z,97425.45
2018-01-15T10:51:12.094Z,97414.91
2018-01-15T10:52:17.284Z,97422.09
2018-01-15T10:53:22.106Z,97132.01
2018-01-15T10:54:26.848Z,97410.75
2018-01-15T10:55:31.642Z,97405.81
2018-01-15T10:56:36.453Z,97342.48
2018-01-15T10:57:41.717Z,97308.08
2018-01-15T10:58:46.943Z,97392.08
2018-01-15T10:59:51.677Z,97325.95
2018-01-15T11:00:56.592Z,97388.70
2018-01-15T11:02:01.336Z,97395.72
2018-01-15T11:03:06.407Z,97387.07
2018-01-15T11:04:11.118Z,97384.95
2018-01-15T11:05:16.219Z,97392.17
2018-01-15T11:06:20.927Z,97072.86
2018-01-15T11:07:25.649Z,97135.91
2018-01-15T11:08:30.660Z,97442.20
2018-01-15T11:09:36.348Z,97381.40
2018-01-15T11:10:41.085Z,97301.86
2018-01-15T11:11:46.093Z,97373.36
2018-01-15T11:12:50.878Z,97306.93
2018-01-15T11:13:55.693Z,97207.50
2018-01-15T11:15:00.580Z,97374.05
2018-01-15T11:16:05.567Z,97374.13
2018-01-15T11:17:10.389Z,97204.01
2018-01-15T11:18:17.203Z,97371.41
2018-01-15T11:19:22.072Z,97362.66
2018-01-15T11:20:27.189Z,97365.88
2018-01-15T11:21:31.919Z,97361.63
2018-01-15T11:22:37.432Z,97354.57
2018-01-15T11:23:42.227Z,97350.03
2018-01-15T11:24:47.375Z,97313.65
2018-01-15T11:25:52.278Z,97318.47
2018-01-15T11:26:57.221Z,97344.80
2018-01-15T11:28:01.983Z,97335.70
2018-01-15T11:29:06.857Z,97417.54
2018-01-15T11:30:11.728Z,97330.61
2018-01-15T11:31:19.066Z,97337.62
2018-01-15T11:32:23.994Z,97112.23
2018-01-15T11:33:28.848Z,97325.03
2018-01-15T11:34:33.837Z,97302.25
2018-01-15T11:35:39.747Z,97330.06
2018-01-15T11:36:45.709Z,97250.30
2018-01-15T11:37:50.865Z,97320.62
2018-01-15T11:38:56.661Z,97326.19
2018-01-15T11:40:02.653Z,97316.55
2018-01-15T11:41:08.551Z,97316.64
2018-01-15T11:43:36.429Z,96995.41
2018-01-15T11:44:41.191Z,97291.80
2018-01-15T11:45:46.084Z,97338.82
2018-01-15T11:46:51.020Z,97294.89
2018-01-15T11:47:56.014Z,97218.28
2018-01-15T11:49:01.730Z,97164.14
2018-01-15T11:50:07.239Z,97109.07
2018-01-15T11:51:12.179Z,97170.72
2018-01-15T11:52:17.084Z,97288.49
2018-01-15T11:53:23.897Z,97283.70
2018-01-15T11:54:28.758Z,97189.02
2018-01-15T11:55:33.680Z,97207.41
2018-01-15T11:56:39.422Z,97237.03
2018-01-15T11:57:45.074Z,97192.35
2018-01-15T11:58:49.965Z,97258.56
2018-01-15T11:59:57.219Z,97087.31
2018-01-15T12:01:03.311Z,97259.75
2018-01-15T12:02:09.946Z,97248.52
2018-01-15T12:03:14.850Z,97245.11
2018-01-15T12:04:19.866Z,97252.19
2018-01-15T12:05:24.706Z,97245.72
2018-01-15T12:07:51.063Z,97237.95
2018-01-15T12:08:56.033Z,97231.94
2018-01-15T12:10:01.324Z,97201.41
2018-01-15T12:12:29.018Z,97156.39
2018-01-15T12:13:33.826Z,97223.01
2018-01-15T12:14:38.758Z,97217.22
2018-01-15T12:15:43.522Z,97115.42
2018-01-15T12:16:48.430Z,97176.59
2018-01-15T12:17:53.118Z,97206.70
2018-01-15T12:18:58.256Z,96878.78
2018-01-15T12:21:25.036Z,97192.52
2018-01-15T12:22:31.670Z,97189.13
2018-01-15T12:23:36.605Z,97181.51
2018-01-15T12:24:41.459Z,97182.08
2018-01-15T12:25:46.247Z,97176.42
2018-01-15T12:26:51.138Z,97184.52
2018-01-15T12:27:56.359Z,97169.96
2018-01-15T12:29:01.817Z,97164.34
2018-01-15T12:30:06.525Z,97155.58
2018-01-15T12:31:12.619Z,97154.86
2018-01-15T12:32:17.562Z,97155.11
2018-01-15T12:33:22.540Z,97153.38
2018-01-15T12:34:27.795Z,96918.27
2018-01-15T12:35:32.653Z,97144.24
2018-01-15T12:36:38.314Z,97150.06
2018-01-15T12:37:43.151Z,97107.16
2018-01-15T12:38:48.016Z,97134.47
2018-01-15T12:39:52.846Z,96861.40
2018-01-15T12:40:58.182Z,97126.62
2018-01-15T12:42:03.111Z,97121.41
2018-01-15T12:43:08.003Z,96952.69
2018-01-15T12:44:12.907Z,96991.37
2018-01-15T12:45:17.820Z,97016.77
2018-01-15T12:46:22.599Z,97103.48
2018-01-15T12:47:27.897Z,97098.70